sensor_id;sensor_type;location;lat;lon;timestamp;P1;P2;P0
69123;PMS5003;56232;53.384;-2.732;2023-05-21T00:01:13;14;14;
69123;PMS5003;56232;53.384;-2.732;2023-05-21T00:03:39;13;13;
69123;PMS5003;56232;53.384;-2.732;2023-05-21T00:06:04;16;15;
69123;PMS5003;56232;53.384;-2.732;2023-05-21T00:08:30;17;16;
69123;PMS5003;56232;53.384;-2.732;2023-05-21T00:10:55;13;12;
69123;PMS5003;56232;53.384;-2.732;2023-05-21T00:13:21;12;12;
69123;PMS5003;56232;53.384;-2.732;2023-05-21T00:15:46;14;13;
69123;PMS5003;56232;53.384;-2.732;2023-05-21T00:18:12;14;14;
69123;PMS5003;56232;53.384;-2.732;2023-05-21T00:20:37;14;14;
69123;PMS5003;56232;53.384;-2.732;2023-05-21T00:23:03;17;17;
69123;PMS5003;56232;53.384;-2.732;2023-05-21T00:25:28;17;16;
69123;PMS5003;56232;53.384;-2.732;2023-05-21T00:27:54;16;16;
69123;PMS5003;56232;53.384;-2.732;2023-05-21T00:30:19;19;17;
69123;PMS5003;56232;53.384;-2.732;2023-05-21T00:32:45;17;16;
69123;PMS5003;56232;53.384;-2.732;2023-05-21T00:35:10;19;18;
69123;PMS5003;56232;53.384;-2.732;2023-05-21T00:37:35;21;20;
69123;PMS5003;56232;53.384;-2.732;2023-05-21T00:40:01;16;15;
69123;PMS5003;56232;53.384;-2.732;2023-05-21T00:42:26;16;16;
69123;PMS5003;56232;53.384;-2.732;2023-05-21T00:44:52;18;18;
69123;PMS5003;56232;53.384;-2.732;2023-05-21T00:47:17;19;18;
69123;PMS5003;56232;53.384;-2.732;2023-05-21T00:49:43;17;16;
69123;PMS5003;56232;53.384;-2.732;2023-05-21T00:52:08;15;15;
69123;PMS5003;56232;53.384;-2.732;2023-05-21T00:54:34;16;16;
69123;PMS5003;56232;53.384;-2.732;2023-05-21T00:56:59;14;13;
69123;PMS5003;56232;53.384;-2.732;2023-05-21T00:59:25;15;15;
69123;PMS5003;56232;53.384;-2.732;2023-05-21T01:01:51;17;16;
69123;PMS5003;56232;53.384;-2.732;2023-05-21T01:04:16;18;18;
69123;PMS5003;56232;53.384;-2.732;2023-05-21T01:06:41;21;20;
69123;PMS5003;56232;53.384;-2.732;2023-05-21T01:09:06;19;18;
69123;PMS5003;56232;53.384;-2.732;2023-05-21T01:11:36;17;17;
69123;PMS5003;56232;53.384;-2.732;2023-05-21T01:13:57;17;16;
69123;PMS5003;56232;53.384;-2.732;2023-05-21T01:16:23;21;21;
69123;PMS5003;56232;53.384;-2.732;2023-05-21T01:18:49;15;15;
69123;PMS5003;56232;53.384;-2.732;2023-05-21T01:21:14;16;16;
69123;PMS5003;56232;53.384;-2.732;2023-05-21T01:23:39;16;15;
69123;PMS5003;56232;53.384;-2.732;2023-05-21T01:26:04;19;19;
69123;PMS5003;56232;53.384;-2.732;2023-05-21T01:28:30;18;18;
69123;PMS5003;56232;53.384;-2.732;2023-05-21T01:30:56;19;19;
69123;PMS5003;56232;53.384;-2.732;2023-05-21T01:33:24;18;18;
69123;PMS5003;56232;53.384;-2.732;2023-05-21T01:35:49;17;17;
69123;PMS5003;56232;53.384;-2.732;2023-05-21T01:38:15;16;16;
69123;PMS5003;56232;53.384;-2.732;2023-05-21T01:40:40;19;19;
69123;PMS5003;56232;53.384;-2.732;2023-05-21T01:43:05;17;16;
69123;PMS5003;56232;53.384;-2.732;2023-05-21T01:45:30;20;19;
69123;PMS5003;56232;53.384;-2.732;2023-05-21T01:47:55;15;15;
69123;PMS5003;56232;53.384;-2.732;2023-05-21T01:50:21;21;20;
69123;PMS5003;56232;53.384;-2.732;2023-05-21T01:52:48;15;15;
69123;PMS5003;56232;53.384;-2.732;2023-05-21T01:55:12;15;15;
69123;PMS5003;56232;53.384;-2.732;2023-05-21T01:57:37;21;18;
69123;PMS5003;56232;53.384;-2.732;2023-05-21T02:00:04;17;16;
69123;PMS5003;56232;53.384;-2.732;2023-05-21T02:02:29;15;15;
69123;PMS5003;56232;53.384;-2.732;2023-05-21T02:04:54;21;20;
69123;PMS5003;56232;53.384;-2.732;2023-05-21T02:07:20;19;19;
69123;PMS5003;56232;53.384;-2.732;2023-05-21T02:09:46;17;17;
69123;PMS5003;56232;53.384;-2.732;2023-05-21T02:12:11;14;13;
69123;PMS5003;56232;53.384;-2.732;2023-05-21T02:14:37;19;19;
69123;PMS5003;56232;53.384;-2.732;2023-05-21T02:17:03;19;19;
69123;PMS5003;56232;53.384;-2.732;2023-05-21T02:19:28;17;17;
69123;PMS5003;56232;53.384;-2.732;2023-05-21T02:21:54;15;15;
69123;PMS5003;56232;53.384;-2.732;2023-05-21T02:24:19;20;18;
69123;PMS5003;56232;53.384;-2.732;2023-05-21T02:26:44;25;22;
69123;PMS5003;56232;53.384;-2.732;2023-05-21T02:29:10;17;17;
69123;PMS5003;56232;53.384;-2.732;2023-05-21T02:31:35;16;15;
69123;PMS5003;56232;53.384;-2.732;2023-05-21T02:34:00;17;16;
69123;PMS5003;56232;53.384;-2.732;2023-05-21T02:36:26;14;14;
69123;PMS5003;56232;53.384;-2.732;2023-05-21T02:38:52;17;16;
69123;PMS5003;56232;53.384;-2.732;2023-05-21T02:41:17;15;14;
69123;PMS5003;56232;53.384;-2.732;2023-05-21T02:43:48;18;17;
69123;PMS5003;56232;53.384;-2.732;2023-05-21T02:46:09;18;17;
69123;PMS5003;56232;53.384;-2.732;2023-05-21T02:48:34;19;19;
69123;PMS5003;56232;53.384;-2.732;2023-05-21T02:51:00;18;18;
69123;PMS5003;56232;53.384;-2.732;2023-05-21T02:53:25;24;20;
69123;PMS5003;56232;53.384;-2.732;2023-05-21T02:55:51;21;19;
69123;PMS5003;56232;53.384;-2.732;2023-05-21T02:58:17;19;18;
69123;PMS5003;56232;53.384;-2.732;2023-05-21T03:00:43;20;20;
69123;PMS5003;56232;53.384;-2.732;2023-05-21T03:03:08;19;19;
69123;PMS5003;56232;53.384;-2.732;2023-05-21T03:05:34;16;16;
69123;PMS5003;56232;53.384;-2.732;2023-05-21T03:07:59;18;17;
69123;PMS5003;56232;53.384;-2.732;2023-05-21T03:10:25;16;16;
69123;PMS5003;56232;53.384;-2.732;2023-05-21T03:12:50;16;16;
69123;PMS5003;56232;53.384;-2.732;2023-05-21T03:15:16;20;18;
69123;PMS5003;56232;53.384;-2.732;2023-05-21T03:17:42;17;16;
69123;PMS5003;56232;53.384;-2.732;2023-05-21T03:20:08;17;17;
69123;PMS5003;56232;53.384;-2.732;2023-05-21T03:22:33;17;16;
69123;PMS5003;56232;53.384;-2.732;2023-05-21T03:24:59;17;17;
69123;PMS5003;56232;53.384;-2.732;2023-05-21T03:27:24;15;14;
69123;PMS5003;56232;53.384;-2.732;2023-05-21T03:29:50;15;15;
69123;PMS5003;56232;53.384;-2.732;2023-05-21T03:32:16;16;15;
69123;PMS5003;56232;53.384;-2.732;2023-05-21T03:34:42;17;17;
69123;PMS5003;56232;53.384;-2.732;2023-05-21T03:37:07;14;14;
69123;PMS5003;56232;53.384;-2.732;2023-05-21T03:39:32;15;15;
69123;PMS5003;56232;53.384;-2.732;2023-05-21T03:41:58;17;17;
69123;PMS5003;56232;53.384;-2.732;2023-05-21T03:44:24;18;17;
69123;PMS5003;56232;53.384;-2.732;2023-05-21T03:46:50;17;17;
69123;PMS5003;56232;53.384;-2.732;2023-05-21T03:49:15;18;17;
69123;PMS5003;56232;53.384;-2.732;2023-05-21T03:51:41;17;16;
69123;PMS5003;56232;53.384;-2.732;2023-05-21T03:54:07;21;20;
69123;PMS5003;56232;53.384;-2.732;2023-05-21T03:56:32;23;21;
69123;PMS5003;56232;53.384;-2.732;2023-05-21T03:58:57;18;17;
69123;PMS5003;56232;53.384;-2.732;2023-05-21T04:01:23;20;19;
69123;PMS5003;56232;53.384;-2.732;2023-05-21T04:03:49;19;19;
69123;PMS5003;56232;53.384;-2.732;2023-05-21T04:06:15;18;18;
69123;PMS5003;56232;53.384;-2.732;2023-05-21T04:08:40;20;20;
69123;PMS5003;56232;53.384;-2.732;2023-05-21T04:11:06;20;19;
69123;PMS5003;56232;53.384;-2.732;2023-05-21T04:13:32;21;20;
69123;PMS5003;56232;53.384;-2.732;2023-05-21T04:15:57;26;21;
69123;PMS5003;56232;53.384;-2.732;2023-05-21T04:18:22;20;20;
69123;PMS5003;56232;53.384;-2.732;2023-05-21T04:20:48;18;18;
69123;PMS5003;56232;53.384;-2.732;2023-05-21T04:23:13;19;19;
69123;PMS5003;56232;53.384;-2.732;2023-05-21T04:25:39;17;17;
69123;PMS5003;56232;53.384;-2.732;2023-05-21T04:28:05;19;17;
69123;PMS5003;56232;53.384;-2.732;2023-05-21T04:30:31;22;20;
69123;PMS5003;56232;53.384;-2.732;2023-05-21T04:32:56;21;17;
69123;PMS5003;56232;53.384;-2.732;2023-05-21T04:35:21;20;20;
69123;PMS5003;56232;53.384;-2.732;2023-05-21T04:37:47;18;18;
69123;PMS5003;56232;53.384;-2.732;2023-05-21T04:40:12;20;20;
69123;PMS5003;56232;53.384;-2.732;2023-05-21T04:42:37;18;17;
69123;PMS5003;56232;53.384;-2.732;2023-05-21T04:45:03;22;22;
69123;PMS5003;56232;53.384;-2.732;2023-05-21T04:47:29;21;20;
69123;PMS5003;56232;53.384;-2.732;2023-05-21T04:49:54;18;18;
69123;PMS5003;56232;53.384;-2.732;2023-05-21T04:52:19;19;18;
69123;PMS5003;56232;53.384;-2.732;2023-05-21T04:54:45;22;22;
69123;PMS5003;56232;53.384;-2.732;2023-05-21T04:57:10;23;21;
69123;PMS5003;56232;53.384;-2.732;2023-05-21T04:59:35;19;18;
69123;PMS5003;56232;53.384;-2.732;2023-05-21T05:02:01;18;17;
69123;PMS5003;56232;53.384;-2.732;2023-05-21T05:04:26;19;18;
69123;PMS5003;56232;53.384;-2.732;2023-05-21T05:06:52;16;16;
69123;PMS5003;56232;53.384;-2.732;2023-05-21T05:09:17;17;17;
69123;PMS5003;56232;53.384;-2.732;2023-05-21T05:11:43;17;16;
69123;PMS5003;56232;53.384;-2.732;2023-05-21T05:14:08;17;17;
69123;PMS5003;56232;53.384;-2.732;2023-05-21T05:16:33;18;18;
69123;PMS5003;56232;53.384;-2.732;2023-05-21T05:18:59;18;18;
69123;PMS5003;56232;53.384;-2.732;2023-05-21T05:21:24;16;16;
69123;PMS5003;56232;53.384;-2.732;2023-05-21T05:23:50;19;18;
69123;PMS5003;56232;53.384;-2.732;2023-05-21T05:26:15;22;19;
69123;PMS5003;56232;53.384;-2.732;2023-05-21T05:28:41;19;18;
69123;PMS5003;56232;53.384;-2.732;2023-05-21T05:31:06;17;16;
69123;PMS5003;56232;53.384;-2.732;2023-05-21T05:33:32;14;14;
69123;PMS5003;56232;53.384;-2.732;2023-05-21T05:35:57;15;15;
69123;PMS5003;56232;53.384;-2.732;2023-05-21T05:38:28;16;16;
69123;PMS5003;56232;53.384;-2.732;2023-05-21T05:40:48;20;19;
69123;PMS5003;56232;53.384;-2.732;2023-05-21T05:43:13;16;15;
69123;PMS5003;56232;53.384;-2.732;2023-05-21T05:45:39;13;13;
69123;PMS5003;56232;53.384;-2.732;2023-05-21T05:48:05;14;13;
69123;PMS5003;56232;53.384;-2.732;2023-05-21T05:50:31;18;18;
69123;PMS5003;56232;53.384;-2.732;2023-05-21T05:52:56;15;15;
69123;PMS5003;56232;53.384;-2.732;2023-05-21T05:55:22;18;18;
69123;PMS5003;56232;53.384;-2.732;2023-05-21T05:57:47;12;12;
69123;PMS5003;56232;53.384;-2.732;2023-05-21T06:00:13;17;16;
69123;PMS5003;56232;53.384;-2.732;2023-05-21T06:02:38;13;13;
69123;PMS5003;56232;53.384;-2.732;2023-05-21T06:05:05;14;14;
69123;PMS5003;56232;53.384;-2.732;2023-05-21T06:07:30;16;16;
69123;PMS5003;56232;53.384;-2.732;2023-05-21T06:09:55;15;15;
69123;PMS5003;56232;53.384;-2.732;2023-05-21T06:12:21;15;15;
69123;PMS5003;56232;53.384;-2.732;2023-05-21T06:14:46;17;16;
69123;PMS5003;56232;53.384;-2.732;2023-05-21T06:17:12;18;18;
69123;PMS5003;56232;53.384;-2.732;2023-05-21T06:19:38;14;14;
69123;PMS5003;56232;53.384;-2.732;2023-05-21T06:22:03;14;14;
69123;PMS5003;56232;53.384;-2.732;2023-05-21T06:24:28;17;17;
69123;PMS5003;56232;53.384;-2.732;2023-05-21T06:26:53;13;13;
69123;PMS5003;56232;53.384;-2.732;2023-05-21T06:29:19;15;15;
69123;PMS5003;56232;53.384;-2.732;2023-05-21T06:31:45;14;13;
69123;PMS5003;56232;53.384;-2.732;2023-05-21T06:34:10;16;16;
69123;PMS5003;56232;53.384;-2.732;2023-05-21T06:36:36;17;17;
69123;PMS5003;56232;53.384;-2.732;2023-05-21T06:39:01;14;14;
69123;PMS5003;56232;53.384;-2.732;2023-05-21T06:41:26;16;16;
69123;PMS5003;56232;53.384;-2.732;2023-05-21T06:43:52;14;14;
69123;PMS5003;56232;53.384;-2.732;2023-05-21T06:46:17;14;14;
69123;PMS5003;56232;53.384;-2.732;2023-05-21T06:48:43;13;13;
69123;PMS5003;56232;53.384;-2.732;2023-05-21T06:51:08;18;15;
69123;PMS5003;56232;53.384;-2.732;2023-05-21T06:53:34;15;15;
69123;PMS5003;56232;53.384;-2.732;2023-05-21T06:55:59;16;16;
69123;PMS5003;56232;53.384;-2.732;2023-05-21T06:58:25;16;16;
69123;PMS5003;56232;53.384;-2.732;2023-05-21T07:00:50;18;18;
69123;PMS5003;56232;53.384;-2.732;2023-05-21T07:03:16;18;18;
69123;PMS5003;56232;53.384;-2.732;2023-05-21T07:05:42;18;18;
69123;PMS5003;56232;53.384;-2.732;2023-05-21T07:08:07;15;15;
69123;PMS5003;56232;53.384;-2.732;2023-05-21T07:10:33;13;13;
69123;PMS5003;56232;53.384;-2.732;2023-05-21T07:12:59;13;13;
69123;PMS5003;56232;53.384;-2.732;2023-05-21T07:15:24;17;15;
69123;PMS5003;56232;53.384;-2.732;2023-05-21T07:17:50;16;16;
69123;PMS5003;56232;53.384;-2.732;2023-05-21T07:20:16;14;13;
69123;PMS5003;56232;53.384;-2.732;2023-05-21T07:22:42;17;15;
69123;PMS5003;56232;53.384;-2.732;2023-05-21T07:25:07;16;16;
69123;PMS5003;56232;53.384;-2.732;2023-05-21T07:27:32;20;19;
69123;PMS5003;56232;53.384;-2.732;2023-05-21T07:29:57;17;16;
69123;PMS5003;56232;53.384;-2.732;2023-05-21T07:32:23;16;16;
69123;PMS5003;56232;53.384;-2.732;2023-05-21T07:34:48;15;13;
69123;PMS5003;56232;53.384;-2.732;2023-05-21T07:37:14;13;13;
69123;PMS5003;56232;53.384;-2.732;2023-05-21T07:39:39;16;15;
69123;PMS5003;56232;53.384;-2.732;2023-05-21T07:42:05;14;14;
69123;PMS5003;56232;53.384;-2.732;2023-05-21T07:44:30;14;14;
69123;PMS5003;56232;53.384;-2.732;2023-05-21T07:46:56;15;15;
69123;PMS5003;56232;53.384;-2.732;2023-05-21T07:49:21;14;12;
69123;PMS5003;56232;53.384;-2.732;2023-05-21T07:51:47;15;15;
69123;PMS5003;56232;53.384;-2.732;2023-05-21T07:54:12;15;15;
69123;PMS5003;56232;53.384;-2.732;2023-05-21T07:56:38;13;12;
69123;PMS5003;56232;53.384;-2.732;2023-05-21T07:59:04;11;11;
69123;PMS5003;56232;53.384;-2.732;2023-05-21T08:01:29;14;14;
69123;PMS5003;56232;53.384;-2.732;2023-05-21T08:03:54;13;13;
69123;PMS5003;56232;53.384;-2.732;2023-05-21T08:06:20;14;13;
69123;PMS5003;56232;53.384;-2.732;2023-05-21T08:08:45;13;13;
69123;PMS5003;56232;53.384;-2.732;2023-05-21T08:11:10;13;13;
69123;PMS5003;56232;53.384;-2.732;2023-05-21T08:13:36;14;13;
69123;PMS5003;56232;53.384;-2.732;2023-05-21T08:16:02;14;13;
69123;PMS5003;56232;53.384;-2.732;2023-05-21T08:18:27;9;9;
69123;PMS5003;56232;53.384;-2.732;2023-05-21T08:20:53;13;11;
69123;PMS5003;56232;53.384;-2.732;2023-05-21T08:23:18;10;10;
69123;PMS5003;56232;53.384;-2.732;2023-05-21T08:25:44;9;8;
69123;PMS5003;56232;53.384;-2.732;2023-05-21T08:28:09;9;9;
69123;PMS5003;56232;53.384;-2.732;2023-05-21T08:30:35;9;8;
69123;PMS5003;56232;53.384;-2.732;2023-05-21T08:33:01;9;8;
69123;PMS5003;56232;53.384;-2.732;2023-05-21T08:35:26;9;9;
69123;PMS5003;56232;53.384;-2.732;2023-05-21T08:37:52;6;6;
69123;PMS5003;56232;53.384;-2.732;2023-05-21T08:40:22;8;8;
69123;PMS5003;56232;53.384;-2.732;2023-05-21T08:42:44;11;11;
69123;PMS5003;56232;53.384;-2.732;2023-05-21T08:45:10;8;8;
69123;PMS5003;56232;53.384;-2.732;2023-05-21T08:47:34;10;10;
69123;PMS5003;56232;53.384;-2.732;2023-05-21T08:50:01;9;9;
69123;PMS5003;56232;53.384;-2.732;2023-05-21T08:52:25;8;8;
69123;PMS5003;56232;53.384;-2.732;2023-05-21T08:54:52;9;9;
69123;PMS5003;56232;53.384;-2.732;2023-05-21T08:57:17;11;11;
69123;PMS5003;56232;53.384;-2.732;2023-05-21T08:59:43;8;8;
69123;PMS5003;56232;53.384;-2.732;2023-05-21T09:02:08;10;10;
69123;PMS5003;56232;53.384;-2.732;2023-05-21T09:04:33;10;10;
69123;PMS5003;56232;53.384;-2.732;2023-05-21T09:06:59;9;9;
69123;PMS5003;56232;53.384;-2.732;2023-05-21T09:09:26;9;8;
69123;PMS5003;56232;53.384;-2.732;2023-05-21T09:11:50;10;10;
69123;PMS5003;56232;53.384;-2.732;2023-05-21T09:14:15;10;10;
69123;PMS5003;56232;53.384;-2.732;2023-05-21T09:16:41;9;8;
69123;PMS5003;56232;53.384;-2.732;2023-05-21T09:19:06;10;9;
69123;PMS5003;56232;53.384;-2.732;2023-05-21T09:21:32;9;9;
69123;PMS5003;56232;53.384;-2.732;2023-05-21T09:23:58;11;11;
69123;PMS5003;56232;53.384;-2.732;2023-05-21T09:26:23;10;10;
69123;PMS5003;56232;53.384;-2.732;2023-05-21T09:28:50;8;8;
69123;PMS5003;56232;53.384;-2.732;2023-05-21T09:31:14;9;9;
69123;PMS5003;56232;53.384;-2.732;2023-05-21T09:33:44;9;9;
69123;PMS5003;56232;53.384;-2.732;2023-05-21T09:36:06;9;8;
69123;PMS5003;56232;53.384;-2.732;2023-05-21T09:38:32;8;7;
69123;PMS5003;56232;53.384;-2.732;2023-05-21T09:40:56;10;10;
69123;PMS5003;56232;53.384;-2.732;2023-05-21T09:43:21;10;9;
69123;PMS5003;56232;53.384;-2.732;2023-05-21T09:45:50;7;7;
69123;PMS5003;56232;53.384;-2.732;2023-05-21T09:48:13;8;8;
69123;PMS5003;56232;53.384;-2.732;2023-05-21T09:50:38;8;8;
69123;PMS5003;56232;53.384;-2.732;2023-05-21T09:53:04;9;9;
69123;PMS5003;56232;53.384;-2.732;2023-05-21T09:55:29;8;8;
69123;PMS5003;56232;53.384;-2.732;2023-05-21T09:57:55;8;8;
69123;PMS5003;56232;53.384;-2.732;2023-05-21T10:00:21;9;8;
69123;PMS5003;56232;53.384;-2.732;2023-05-21T10:02:46;10;9;
69123;PMS5003;56232;53.384;-2.732;2023-05-21T10:05:12;8;8;
69123;PMS5003;56232;53.384;-2.732;2023-05-21T10:07:37;8;8;
69123;PMS5003;56232;53.384;-2.732;2023-05-21T10:10:02;8;8;
69123;PMS5003;56232;53.384;-2.732;2023-05-21T10:12:28;8;8;
69123;PMS5003;56232;53.384;-2.732;2023-05-21T10:14:59;6;6;
69123;PMS5003;56232;53.384;-2.732;2023-05-21T10:17:19;7;7;
69123;PMS5003;56232;53.384;-2.732;2023-05-21T10:19:45;7;7;
69123;PMS5003;56232;53.384;-2.732;2023-05-21T10:22:10;7;7;
69123;PMS5003;56232;53.384;-2.732;2023-05-21T10:24:35;8;8;
69123;PMS5003;56232;53.384;-2.732;2023-05-21T10:27:01;8;8;
69123;PMS5003;56232;53.384;-2.732;2023-05-21T10:29:26;10;9;
69123;PMS5003;56232;53.384;-2.732;2023-05-21T10:31:52;10;9;
69123;PMS5003;56232;53.384;-2.732;2023-05-21T10:34:17;10;9;
69123;PMS5003;56232;53.384;-2.732;2023-05-21T10:36:43;8;8;
69123;PMS5003;56232;53.384;-2.732;2023-05-21T10:39:08;10;9;
69123;PMS5003;56232;53.384;-2.732;2023-05-21T10:41:34;8;8;
69123;PMS5003;56232;53.384;-2.732;2023-05-21T10:44:01;10;10;
69123;PMS5003;56232;53.384;-2.732;2023-05-21T10:48:55;11;10;
69123;PMS5003;56232;53.384;-2.732;2023-05-21T10:51:17;10;10;
69123;PMS5003;56232;53.384;-2.732;2023-05-21T10:53:45;11;9;
69123;PMS5003;56232;53.384;-2.732;2023-05-21T10:56:10;8;8;
69123;PMS5003;56232;53.384;-2.732;2023-05-21T11:00:58;8;8;
69123;PMS5003;56232;53.384;-2.732;2023-05-21T11:03:23;10;10;
69123;PMS5003;56232;53.384;-2.732;2023-05-21T11:05:50;10;10;
69123;PMS5003;56232;53.384;-2.732;2023-05-21T11:10:40;10;10;
69123;PMS5003;56232;53.384;-2.732;2023-05-21T11:13:07;9;9;
69123;PMS5003;56232;53.384;-2.732;2023-05-21T11:15:32;10;10;
69123;PMS5003;56232;53.384;-2.732;2023-05-21T11:17:56;11;11;
69123;PMS5003;56232;53.384;-2.732;2023-05-21T11:20:22;9;8;
69123;PMS5003;56232;53.384;-2.732;2023-05-21T11:22:47;9;9;
69123;PMS5003;56232;53.384;-2.732;2023-05-21T11:25:13;8;8;
69123;PMS5003;56232;53.384;-2.732;2023-05-21T11:27:39;10;10;
69123;PMS5003;56232;53.384;-2.732;2023-05-21T11:30:04;9;9;
69123;PMS5003;56232;53.384;-2.732;2023-05-21T11:32:29;8;8;
69123;PMS5003;56232;53.384;-2.732;2023-05-21T11:34:55;11;11;
69123;PMS5003;56232;53.384;-2.732;2023-05-21T11:37:21;9;8;
69123;PMS5003;56232;53.384;-2.732;2023-05-21T11:39:46;11;11;
69123;PMS5003;56232;53.384;-2.732;2023-05-21T11:42:12;11;10;
69123;PMS5003;56232;53.384;-2.732;2023-05-21T11:44:38;8;8;
69123;PMS5003;56232;53.384;-2.732;2023-05-21T11:47:03;9;9;
69123;PMS5003;56232;53.384;-2.732;2023-05-21T11:49:29;10;10;
69123;PMS5003;56232;53.384;-2.732;2023-05-21T11:51:54;9;9;
69123;PMS5003;56232;53.384;-2.732;2023-05-21T11:54:20;9;9;
69123;PMS5003;56232;53.384;-2.732;2023-05-21T11:56:46;9;9;
69123;PMS5003;56232;53.384;-2.732;2023-05-21T11:59:12;11;10;
69123;PMS5003;56232;53.384;-2.732;2023-05-21T12:01:36;11;10;
69123;PMS5003;56232;53.384;-2.732;2023-05-21T12:04:02;11;10;
69123;PMS5003;56232;53.384;-2.732;2023-05-21T12:06:27;10;9;
69123;PMS5003;56232;53.384;-2.732;2023-05-21T12:08:53;10;10;
69123;PMS5003;56232;53.384;-2.732;2023-05-21T12:11:18;9;9;
69123;PMS5003;56232;53.384;-2.732;2023-05-21T12:13:44;10;10;
69123;PMS5003;56232;53.384;-2.732;2023-05-21T12:16:09;11;11;
69123;PMS5003;56232;53.384;-2.732;2023-05-21T12:18:35;10;9;
69123;PMS5003;56232;53.384;-2.732;2023-05-21T12:21:00;10;10;
69123;PMS5003;56232;53.384;-2.732;2023-05-21T12:23:26;12;12;
69123;PMS5003;56232;53.384;-2.732;2023-05-21T12:25:51;9;9;
69123;PMS5003;56232;53.384;-2.732;2023-05-21T12:28:16;10;10;
69123;PMS5003;56232;53.384;-2.732;2023-05-21T12:30:42;10;10;
69123;PMS5003;56232;53.384;-2.732;2023-05-21T12:33:07;10;9;
69123;PMS5003;56232;53.384;-2.732;2023-05-21T12:35:33;7;7;
69123;PMS5003;56232;53.384;-2.732;2023-05-21T12:37:59;11;11;
69123;PMS5003;56232;53.384;-2.732;2023-05-21T12:42:49;9;8;
69123;PMS5003;56232;53.384;-2.732;2023-05-21T12:45:15;9;9;
69123;PMS5003;56232;53.384;-2.732;2023-05-21T12:47:41;10;10;
69123;PMS5003;56232;53.384;-2.732;2023-05-21T12:50:07;12;10;
69123;PMS5003;56232;53.384;-2.732;2023-05-21T12:52:32;8;8;
69123;PMS5003;56232;53.384;-2.732;2023-05-21T12:54:57;11;11;
69123;PMS5003;56232;53.384;-2.732;2023-05-21T12:57:24;12;11;
69123;PMS5003;56232;53.384;-2.732;2023-05-21T12:59:49;8;8;
69123;PMS5003;56232;53.384;-2.732;2023-05-21T13:02:17;9;8;
69123;PMS5003;56232;53.384;-2.732;2023-05-21T13:04:40;10;9;
69123;PMS5003;56232;53.384;-2.732;2023-05-21T13:07:05;10;10;
69123;PMS5003;56232;53.384;-2.732;2023-05-21T13:09:31;11;11;
69123;PMS5003;56232;53.384;-2.732;2023-05-21T13:11:56;12;10;
69123;PMS5003;56232;53.384;-2.732;2023-05-21T13:14:22;9;9;
69123;PMS5003;56232;53.384;-2.732;2023-05-21T13:16:47;13;12;
69123;PMS5003;56232;53.384;-2.732;2023-05-21T13:19:13;12;11;
69123;PMS5003;56232;53.384;-2.732;2023-05-21T13:21:38;10;10;
69123;PMS5003;56232;53.384;-2.732;2023-05-21T13:24:04;10;9;
69123;PMS5003;56232;53.384;-2.732;2023-05-21T13:26:29;11;11;
69123;PMS5003;56232;53.384;-2.732;2023-05-21T13:28:55;12;11;
69123;PMS5003;56232;53.384;-2.732;2023-05-21T13:31:20;9;9;
69123;PMS5003;56232;53.384;-2.732;2023-05-21T13:33:46;10;9;
69123;PMS5003;56232;53.384;-2.732;2023-05-21T13:36:12;11;10;
69123;PMS5003;56232;53.384;-2.732;2023-05-21T13:38:37;10;10;
69123;PMS5003;56232;53.384;-2.732;2023-05-21T13:41:03;9;9;
69123;PMS5003;56232;53.384;-2.732;2023-05-21T13:43:28;12;11;
69123;PMS5003;56232;53.384;-2.732;2023-05-21T13:45:54;9;9;
69123;PMS5003;56232;53.384;-2.732;2023-05-21T13:48:19;9;9;
69123;PMS5003;56232;53.384;-2.732;2023-05-21T13:50:45;9;9;
69123;PMS5003;56232;53.384;-2.732;2023-05-21T13:53:10;12;12;
69123;PMS5003;56232;53.384;-2.732;2023-05-21T13:55:36;10;9;
69123;PMS5003;56232;53.384;-2.732;2023-05-21T13:58:01;11;10;
69123;PMS5003;56232;53.384;-2.732;2023-05-21T14:00:26;11;11;
69123;PMS5003;56232;53.384;-2.732;2023-05-21T14:02:52;11;10;
69123;PMS5003;56232;53.384;-2.732;2023-05-21T14:05:17;10;10;
69123;PMS5003;56232;53.384;-2.732;2023-05-21T14:07:42;11;11;
69123;PMS5003;56232;53.384;-2.732;2023-05-21T14:10:08;12;12;
69123;PMS5003;56232;53.384;-2.732;2023-05-21T14:12:33;9;9;
69123;PMS5003;56232;53.384;-2.732;2023-05-21T14:14:59;8;8;
69123;PMS5003;56232;53.384;-2.732;2023-05-21T14:17:24;11;11;
69123;PMS5003;56232;53.384;-2.732;2023-05-21T14:19:50;9;9;
69123;PMS5003;56232;53.384;-2.732;2023-05-21T14:22:15;8;8;
69123;PMS5003;56232;53.384;-2.732;2023-05-21T14:24:41;10;10;
69123;PMS5003;56232;53.384;-2.732;2023-05-21T14:27:07;13;12;
69123;PMS5003;56232;53.384;-2.732;2023-05-21T14:29:32;13;11;
69123;PMS5003;56232;53.384;-2.732;2023-05-21T14:31:58;9;8;
69123;PMS5003;56232;53.384;-2.732;2023-05-21T14:34:23;9;8;
69123;PMS5003;56232;53.384;-2.732;2023-05-21T14:36:49;13;11;
69123;PMS5003;56232;53.384;-2.732;2023-05-21T14:39:14;9;9;
69123;PMS5003;56232;53.384;-2.732;2023-05-21T14:41:40;9;9;
69123;PMS5003;56232;53.384;-2.732;2023-05-21T14:44:05;9;9;
69123;PMS5003;56232;53.384;-2.732;2023-05-21T14:46:31;10;10;
69123;PMS5003;56232;53.384;-2.732;2023-05-21T14:48:56;8;8;
69123;PMS5003;56232;53.384;-2.732;2023-05-21T14:51:22;8;7;
69123;PMS5003;56232;53.384;-2.732;2023-05-21T14:53:47;7;7;
69123;PMS5003;56232;53.384;-2.732;2023-05-21T14:56:13;8;8;
69123;PMS5003;56232;53.384;-2.732;2023-05-21T14:58:39;7;7;
69123;PMS5003;56232;53.384;-2.732;2023-05-21T15:01:04;4;4;
69123;PMS5003;56232;53.384;-2.732;2023-05-21T15:03:30;7;7;
69123;PMS5003;56232;53.384;-2.732;2023-05-21T15:05:55;8;7;
69123;PMS5003;56232;53.384;-2.732;2023-05-21T15:08:21;7;7;
69123;PMS5003;56232;53.384;-2.732;2023-05-21T15:10:47;7;7;
69123;PMS5003;56232;53.384;-2.732;2023-05-21T15:13:12;6;5;
69123;PMS5003;56232;53.384;-2.732;2023-05-21T15:15:38;9;9;
69123;PMS5003;56232;53.384;-2.732;2023-05-21T15:18:03;10;9;
69123;PMS5003;56232;53.384;-2.732;2023-05-21T15:20:28;14;13;
69123;PMS5003;56232;53.384;-2.732;2023-05-21T15:22:54;8;8;
69123;PMS5003;56232;53.384;-2.732;2023-05-21T15:25:19;6;6;
69123;PMS5003;56232;53.384;-2.732;2023-05-21T15:27:50;7;6;
69123;PMS5003;56232;53.384;-2.732;2023-05-21T15:30:11;8;8;
69123;PMS5003;56232;53.384;-2.732;2023-05-21T15:32:36;7;6;
69123;PMS5003;56232;53.384;-2.732;2023-05-21T15:35:02;6;5;
69123;PMS5003;56232;53.384;-2.732;2023-05-21T15:37:27;6;6;
69123;PMS5003;56232;53.384;-2.732;2023-05-21T15:39:53;10;10;
69123;PMS5003;56232;53.384;-2.732;2023-05-21T15:42:18;9;8;
69123;PMS5003;56232;53.384;-2.732;2023-05-21T15:44:44;10;9;
69123;PMS5003;56232;53.384;-2.732;2023-05-21T15:47:09;8;8;
69123;PMS5003;56232;53.384;-2.732;2023-05-21T15:49:35;12;11;
69123;PMS5003;56232;53.384;-2.732;2023-05-21T15:52:01;11;11;
69123;PMS5003;56232;53.384;-2.732;2023-05-21T15:54:26;6;6;
69123;PMS5003;56232;53.384;-2.732;2023-05-21T15:56:52;11;9;
69123;PMS5003;56232;53.384;-2.732;2023-05-21T15:59:17;12;11;
69123;PMS5003;56232;53.384;-2.732;2023-05-21T16:01:43;10;10;
69123;PMS5003;56232;53.384;-2.732;2023-05-21T16:04:08;10;10;
69123;PMS5003;56232;53.384;-2.732;2023-05-21T16:06:34;9;9;
69123;PMS5003;56232;53.384;-2.732;2023-05-21T16:08:59;12;11;